Mc Allen Miller International Airport
KMFE : now visible

Airfield :











YOU CAN JOIN US ON...

 
LOGIN :

Register | Disclaimer

   EN    FR    IT 

 









Legend :    VFR   Marginal VFR   IFR   Intensive IFR   Very Intensive IFR
Visi :
Ceiling :
>= 8 km
>= 3000ft
5 to 8 km
1000 to 3000 ft
1500m to 5 km
500 to 1000 ft
800 to 1500m
200 to 500 ft
< 800m
< 200 ft
Symbols :   Thunderstorms  Fog  Heavy snow  Heavy precipitations  Wind > 20 kt






- Airport Elevation : 107 ft
- IATA code : MFE


KMFE - Mc Allen Miller International

CURRENT METAR :
  • 191953Z 09005KT 10SM SCT040 BKN050 OVC070 23/12 A3000 RMK AO2 SLP156 T02280117

EXPIRED METARs :
  • 191853Z 05005KT 10SM SCT040 OVC070 23/12 A3002 RMK AO2 SLP165 T02280117 PNO $
  • 191753Z 01006KT 10SM BKN039 OVC075 22/11 A3005 RMK AO2 SLP174 6//// T02220111 10228 20167 PNO $

TAF KMFE
Valid from the 19 at 18:00 until the 20 at 18:00 UTC


191720Z 1918/2018 03006KT P6SM OVC050
FM192200 07007KT P6SM BKN080
FM201100 VRB03KT P6SM BKN250
FM201300 VRB03KT P6SM SCT250
KZHU FIR / North America



MET'MAP, your aeronautical weather chart ! - Copyright ORBIFLY December 2007 - Disclaimer

ORBIFLY MET'MAP TEAM :

Programming & Development : Alexandra Zaïnal
Concept & original design : Baudouin d'Aumeries
Assistance for programming : Marc-Olivier Méhu
Technical & hardware support : Manuel Goepfert

Contact : metmap@orbifly.com




SOURCES & CREDITS :

   NOAA       Earth
Advisory